Main page
METAR-TAF:

METAR-TAF

Airports :

Montpellier–Méditerranée Airport

Montpellier, France

latitude: 43-35N, longitude: 003-58E, elevation: 5 m

Current weather observation

The report was made 28 minutes ago, at 04:00 UTC
Wind 5 kt from the North
Temperature 18°C
Humidity 52%
Pressure 1024 hPa
Visibility 10 km or more
no clouds below 1500 m and no cumulonimbus

METAR: LFMT 260400Z AUTO 36005KT CAVOK 18/08 Q1024 NOSIG

Time: 06:28 (04:28 UTC)

Forecast

The report was made 2 hours and 28 minutes ago, at 02:00 UTC
Forecast valid from 26 at 03 UTC to 27 at 03 UTC
Wind 10 kt from the North
Visibility 10 km or more
no clouds below 1500 m and no cumulonimbus
Becoming
from 26 at 11 UTC to 26 at 13 UTC
Wind 5 kt from the South/Southwest
Becoming
from 26 at 21 UTC to 26 at 23 UTC
Wind 5 kt from the North/Northeast

TAF: LFMT 260200Z 2603/2703 36010KT CAVOK BECMG 2611/2613 20005KT BECMG 2621/2623 02005KT

Weather observations and forecasts of more than 4000 airports (METAR and TAF reports).

The available stations are represented by yellow and red dots on the map.

Hover mouse over dot to see the name of the station.

Then click to see weather observations and forecasts.

To change the map : click on the green buttons with a black cross to zoom in, on the green button with a dash to zoom out, or on the green arrows for adjacent maps.


METAR-TAF: